sensor_id;sensor_type;location;lat;lon;timestamp;P1;durP1;ratioP1;P2;durP2;ratioP2
55314;SDS011;41619;42.816;23.226;2023-05-02T00:02:03;12.18;;;9.55;;
55314;SDS011;41619;42.816;23.226;2023-05-02T00:04:28;10.07;;;7.22;;
55314;SDS011;41619;42.816;23.226;2023-05-02T00:06:54;7.90;;;6.32;;
55314;SDS011;41619;42.816;23.226;2023-05-02T00:09:20;13.38;;;6.75;;
55314;SDS011;41619;42.816;23.226;2023-05-02T00:11:45;9.40;;;5.70;;
55314;SDS011;41619;42.816;23.226;2023-05-02T00:14:11;8.73;;;6.10;;
55314;SDS011;41619;42.816;23.226;2023-05-02T00:16:36;12.32;;;6.72;;
55314;SDS011;41619;42.816;23.226;2023-05-02T00:19:01;10.98;;;6.18;;
55314;SDS011;41619;42.816;23.226;2023-05-02T00:21:27;8.27;;;6.18;;
55314;SDS011;41619;42.816;23.226;2023-05-02T00:23:56;9.82;;;5.80;;
55314;SDS011;41619;42.816;23.226;2023-05-02T00:26:22;5.93;;;5.15;;
55314;SDS011;41619;42.816;23.226;2023-05-02T00:28:48;9.25;;;5.32;;
55314;SDS011;41619;42.816;23.226;2023-05-02T00:31:14;9.80;;;6.32;;
55314;SDS011;41619;42.816;23.226;2023-05-02T00:33:39;7.40;;;5.60;;
55314;SDS011;41619;42.816;23.226;2023-05-02T00:36:11;7.05;;;5.43;;
55314;SDS011;41619;42.816;23.226;2023-05-02T00:38:38;7.63;;;5.65;;
55314;SDS011;41619;42.816;23.226;2023-05-02T00:41:03;12.30;;;5.53;;
55314;SDS011;41619;42.816;23.226;2023-05-02T00:43:29;9.07;;;5.90;;
55314;SDS011;41619;42.816;23.226;2023-05-02T00:45:55;7.72;;;5.90;;
55314;SDS011;41619;42.816;23.226;2023-05-02T00:48:20;8.20;;;5.80;;
55314;SDS011;41619;42.816;23.226;2023-05-02T00:50:47;7.80;;;5.35;;
55314;SDS011;41619;42.816;23.226;2023-05-02T00:53:12;10.77;;;5.90;;
55314;SDS011;41619;42.816;23.226;2023-05-02T00:55:38;9.20;;;6.05;;
55314;SDS011;41619;42.816;23.226;2023-05-02T00:58:21;7.90;;;6.15;;
55314;SDS011;41619;42.816;23.226;2023-05-02T01:06:18;10.90;;;5.90;;
55314;SDS011;41619;42.816;23.226;2023-05-02T01:14:30;7.03;;;5.50;;
55314;SDS011;41619;42.816;23.226;2023-05-02T01:17:03;7.47;;;6.05;;
55314;SDS011;41619;42.816;23.226;2023-05-02T01:19:34;8.55;;;5.70;;
55314;SDS011;41619;42.816;23.226;2023-05-02T01:22:01;6.95;;;5.50;;
55314;SDS011;41619;42.816;23.226;2023-05-02T01:24:34;8.63;;;5.80;;
55314;SDS011;41619;42.816;23.226;2023-05-02T01:27:30;10.98;;;5.60;;
55314;SDS011;41619;42.816;23.226;2023-05-02T01:30:04;7.43;;;5.93;;
55314;SDS011;41619;42.816;23.226;2023-05-02T01:32:31;11.63;;;6.15;;
55314;SDS011;41619;42.816;23.226;2023-05-02T01:34:58;7.40;;;5.90;;
55314;SDS011;41619;42.816;23.226;2023-05-02T01:37:26;8.82;;;5.93;;
55314;SDS011;41619;42.816;23.226;2023-05-02T01:39:53;10.30;;;6.00;;
55314;SDS011;41619;42.816;23.226;2023-05-02T01:42:20;7.63;;;5.85;;
55314;SDS011;41619;42.816;23.226;2023-05-02T01:44:47;8.43;;;6.18;;
55314;SDS011;41619;42.816;23.226;2023-05-02T01:47:15;8.80;;;6.10;;
55314;SDS011;41619;42.816;23.226;2023-05-02T01:49:43;8.88;;;6.03;;
55314;SDS011;41619;42.816;23.226;2023-05-02T01:52:10;8.93;;;6.72;;
55314;SDS011;41619;42.816;23.226;2023-05-02T01:54:36;7.68;;;5.78;;
55314;SDS011;41619;42.816;23.226;2023-05-02T01:57:05;10.13;;;6.20;;
55314;SDS011;41619;42.816;23.226;2023-05-02T01:59:33;7.90;;;6.13;;
55314;SDS011;41619;42.816;23.226;2023-05-02T02:02:01;7.47;;;6.10;;
55314;SDS011;41619;42.816;23.226;2023-05-02T02:04:28;10.85;;;6.30;;
55314;SDS011;41619;42.816;23.226;2023-05-02T02:07:00;8.00;;;6.25;;
55314;SDS011;41619;42.816;23.226;2023-05-02T02:09:28;8.82;;;6.57;;
55314;SDS011;41619;42.816;23.226;2023-05-02T02:12:37;8.98;;;6.18;;
55314;SDS011;41619;42.816;23.226;2023-05-02T02:14:55;8.90;;;6.82;;
55314;SDS011;41619;42.816;23.226;2023-05-02T02:17:31;8.00;;;6.32;;
55314;SDS011;41619;42.816;23.226;2023-05-02T02:20:04;11.02;;;6.95;;
55314;SDS011;41619;42.816;23.226;2023-05-02T02:22:33;9.27;;;7.13;;
55314;SDS011;41619;42.816;23.226;2023-05-02T02:25:04;6.82;;;6.13;;
55314;SDS011;41619;42.816;23.226;2023-05-02T02:27:32;9.93;;;6.78;;
55314;SDS011;41619;42.816;23.226;2023-05-02T02:29:57;9.15;;;6.53;;
55314;SDS011;41619;42.816;23.226;2023-05-02T02:32:23;9.00;;;6.65;;
55314;SDS011;41619;42.816;23.226;2023-05-02T02:34:48;9.50;;;6.60;;
55314;SDS011;41619;42.816;23.226;2023-05-02T02:37:16;7.93;;;6.38;;
55314;SDS011;41619;42.816;23.226;2023-05-02T02:43:22;10.10;;;6.57;;
55314;SDS011;41619;42.816;23.226;2023-05-02T02:45:43;8.45;;;6.68;;
55314;SDS011;41619;42.816;23.226;2023-05-02T02:48:19;7.82;;;6.25;;
55314;SDS011;41619;42.816;23.226;2023-05-02T02:50:55;8.68;;;6.53;;
55314;SDS011;41619;42.816;23.226;2023-05-02T02:53:26;9.85;;;6.70;;
55314;SDS011;41619;42.816;23.226;2023-05-02T02:56:14;8.82;;;7.07;;
55314;SDS011;41619;42.816;23.226;2023-05-02T02:58:51;9.90;;;7.25;;
55314;SDS011;41619;42.816;23.226;2023-05-02T03:01:26;10.40;;;7.22;;
55314;SDS011;41619;42.816;23.226;2023-05-02T03:03:54;9.60;;;7.47;;
55314;SDS011;41619;42.816;23.226;2023-05-02T03:06:21;8.63;;;6.80;;
55314;SDS011;41619;42.816;23.226;2023-05-02T03:08:47;13.45;;;7.47;;
55314;SDS011;41619;42.816;23.226;2023-05-02T03:11:13;8.82;;;7.63;;
55314;SDS011;41619;42.816;23.226;2023-05-02T03:13:38;9.95;;;7.70;;
55314;SDS011;41619;42.816;23.226;2023-05-02T03:18:53;18.00;;;11.03;;
55314;SDS011;41619;42.816;23.226;2023-05-02T03:21:19;18.85;;;10.57;;
55314;SDS011;41619;42.816;23.226;2023-05-02T03:23:44;13.50;;;8.52;;
55314;SDS011;41619;42.816;23.226;2023-05-02T03:26:09;10.48;;;8.20;;
55314;SDS011;41619;42.816;23.226;2023-05-02T03:28:35;10.15;;;8.13;;
55314;SDS011;41619;42.816;23.226;2023-05-02T03:31:00;10.48;;;8.23;;
55314;SDS011;41619;42.816;23.226;2023-05-02T03:33:26;8.82;;;7.80;;
55314;SDS011;41619;42.816;23.226;2023-05-02T03:35:52;11.93;;;7.97;;
55314;SDS011;41619;42.816;23.226;2023-05-02T03:38:17;10.20;;;8.50;;
55314;SDS011;41619;42.816;23.226;2023-05-02T03:40:42;12.15;;;8.25;;
55314;SDS011;41619;42.816;23.226;2023-05-02T03:43:08;11.20;;;8.70;;
55314;SDS011;41619;42.816;23.226;2023-05-02T03:45:33;13.02;;;8.60;;
55314;SDS011;41619;42.816;23.226;2023-05-02T03:47:59;12.65;;;7.90;;
55314;SDS011;41619;42.816;23.226;2023-05-02T03:50:24;11.30;;;8.13;;
55314;SDS011;41619;42.816;23.226;2023-05-02T03:52:50;14.18;;;8.50;;
55314;SDS011;41619;42.816;23.226;2023-05-02T03:55:15;17.25;;;8.70;;
55314;SDS011;41619;42.816;23.226;2023-05-02T03:57:41;13.18;;;8.60;;
55314;SDS011;41619;42.816;23.226;2023-05-02T04:00:06;12.48;;;8.32;;
55314;SDS011;41619;42.816;23.226;2023-05-02T04:02:32;12.13;;;8.32;;
55314;SDS011;41619;42.816;23.226;2023-05-02T04:04:57;10.98;;;8.55;;
55314;SDS011;41619;42.816;23.226;2023-05-02T04:07:23;9.35;;;7.72;;
55314;SDS011;41619;42.816;23.226;2023-05-02T04:09:49;13.43;;;8.00;;
55314;SDS011;41619;42.816;23.226;2023-05-02T04:12:15;11.13;;;8.65;;
55314;SDS011;41619;42.816;23.226;2023-05-02T04:14:41;16.77;;;8.38;;
55314;SDS011;41619;42.816;23.226;2023-05-02T04:17:06;10.55;;;8.50;;
55314;SDS011;41619;42.816;23.226;2023-05-02T04:19:32;12.20;;;8.40;;
55314;SDS011;41619;42.816;23.226;2023-05-02T04:21:58;11.48;;;8.10;;
55314;SDS011;41619;42.816;23.226;2023-05-02T04:24:23;24.88;;;15.40;;
55314;SDS011;41619;42.816;23.226;2023-05-02T04:26:49;16.58;;;13.77;;
55314;SDS011;41619;42.816;23.226;2023-05-02T04:29:15;12.55;;;8.75;;
55314;SDS011;41619;42.816;23.226;2023-05-02T04:31:40;13.10;;;8.48;;
55314;SDS011;41619;42.816;23.226;2023-05-02T04:34:06;12.13;;;8.27;;
55314;SDS011;41619;42.816;23.226;2023-05-02T04:36:31;9.95;;;7.43;;
55314;SDS011;41619;42.816;23.226;2023-05-02T04:38:58;13.88;;;7.85;;
55314;SDS011;41619;42.816;23.226;2023-05-02T04:41:23;11.10;;;7.53;;
55314;SDS011;41619;42.816;23.226;2023-05-02T04:43:49;15.65;;;7.72;;
55314;SDS011;41619;42.816;23.226;2023-05-02T04:46:15;14.80;;;8.52;;
55314;SDS011;41619;42.816;23.226;2023-05-02T04:48:42;13.13;;;7.55;;
55314;SDS011;41619;42.816;23.226;2023-05-02T04:51:08;9.80;;;7.15;;
55314;SDS011;41619;42.816;23.226;2023-05-02T04:53:34;13.73;;;7.50;;
55314;SDS011;41619;42.816;23.226;2023-05-02T04:55:59;9.63;;;6.78;;
55314;SDS011;41619;42.816;23.226;2023-05-02T04:58:25;8.77;;;6.32;;
55314;SDS011;41619;42.816;23.226;2023-05-02T05:00:50;9.43;;;7.18;;
55314;SDS011;41619;42.816;23.226;2023-05-02T05:03:15;11.15;;;6.47;;
55314;SDS011;41619;42.816;23.226;2023-05-02T05:05:41;8.13;;;6.97;;
55314;SDS011;41619;42.816;23.226;2023-05-02T05:08:07;8.95;;;6.90;;
55314;SDS011;41619;42.816;23.226;2023-05-02T05:10:32;10.02;;;6.65;;
55314;SDS011;41619;42.816;23.226;2023-05-02T05:12:57;15.27;;;7.00;;
55314;SDS011;41619;42.816;23.226;2023-05-02T05:15:23;9.38;;;6.40;;
55314;SDS011;41619;42.816;23.226;2023-05-02T05:17:50;9.70;;;6.90;;
55314;SDS011;41619;42.816;23.226;2023-05-02T05:20:15;12.38;;;6.68;;
55314;SDS011;41619;42.816;23.226;2023-05-02T05:22:41;12.40;;;6.95;;
55314;SDS011;41619;42.816;23.226;2023-05-02T05:25:09;11.23;;;6.75;;
55314;SDS011;41619;42.816;23.226;2023-05-02T05:27:35;8.68;;;6.70;;
55314;SDS011;41619;42.816;23.226;2023-05-02T05:30:02;13.05;;;6.65;;
55314;SDS011;41619;42.816;23.226;2023-05-02T05:32:28;9.77;;;6.85;;
55314;SDS011;41619;42.816;23.226;2023-05-02T05:34:54;9.25;;;7.13;;
55314;SDS011;41619;42.816;23.226;2023-05-02T05:37:20;14.95;;;7.40;;
55314;SDS011;41619;42.816;23.226;2023-05-02T05:39:46;12.25;;;7.50;;
55314;SDS011;41619;42.816;23.226;2023-05-02T05:42:12;15.90;;;7.70;;
55314;SDS011;41619;42.816;23.226;2023-05-02T05:44:38;11.35;;;7.05;;
55314;SDS011;41619;42.816;23.226;2023-05-02T05:47:03;11.65;;;6.10;;
55314;SDS011;41619;42.816;23.226;2023-05-02T05:49:29;8.60;;;5.97;;
55314;SDS011;41619;42.816;23.226;2023-05-02T05:51:55;10.43;;;5.95;;
55314;SDS011;41619;42.816;23.226;2023-05-02T05:54:20;10.43;;;6.13;;
55314;SDS011;41619;42.816;23.226;2023-05-02T05:56:46;9.25;;;6.20;;
55314;SDS011;41619;42.816;23.226;2023-05-02T05:59:12;9.30;;;6.50;;
55314;SDS011;41619;42.816;23.226;2023-05-02T06:01:37;7.75;;;6.28;;
55314;SDS011;41619;42.816;23.226;2023-05-02T06:04:03;13.23;;;6.05;;
55314;SDS011;41619;42.816;23.226;2023-05-02T06:06:29;6.75;;;5.30;;
55314;SDS011;41619;42.816;23.226;2023-05-02T06:08:58;18.05;;;7.50;;
55314;SDS011;41619;42.816;23.226;2023-05-02T06:11:24;16.52;;;7.15;;
55314;SDS011;41619;42.816;23.226;2023-05-02T06:13:50;39.70;;;14.68;;
55314;SDS011;41619;42.816;23.226;2023-05-02T06:16:16;34.72;;;11.25;;
55314;SDS011;41619;42.816;23.226;2023-05-02T06:18:42;13.85;;;5.97;;
55314;SDS011;41619;42.816;23.226;2023-05-02T06:21:08;7.63;;;4.85;;
55314;SDS011;41619;42.816;23.226;2023-05-02T06:23:33;17.58;;;9.10;;
55314;SDS011;41619;42.816;23.226;2023-05-02T06:25:59;9.65;;;6.45;;
55314;SDS011;41619;42.816;23.226;2023-05-02T06:28:25;13.88;;;6.30;;
55314;SDS011;41619;42.816;23.226;2023-05-02T06:33:29;6.93;;;4.88;;
55314;SDS011;41619;42.816;23.226;2023-05-02T06:35:55;7.22;;;3.80;;
55314;SDS011;41619;42.816;23.226;2023-05-02T06:38:21;13.20;;;4.40;;
55314;SDS011;41619;42.816;23.226;2023-05-02T06:40:47;11.65;;;4.43;;
55314;SDS011;41619;42.816;23.226;2023-05-02T06:43:13;6.90;;;4.30;;
55314;SDS011;41619;42.816;23.226;2023-05-02T06:45:39;9.82;;;4.53;;
55314;SDS011;41619;42.816;23.226;2023-05-02T06:48:05;8.52;;;4.07;;
55314;SDS011;41619;42.816;23.226;2023-05-02T06:50:31;10.15;;;4.28;;
55314;SDS011;41619;42.816;23.226;2023-05-02T06:52:56;11.02;;;4.03;;
55314;SDS011;41619;42.816;23.226;2023-05-02T06:55:22;7.63;;;4.07;;
55314;SDS011;41619;42.816;23.226;2023-05-02T06:57:47;8.32;;;3.78;;
55314;SDS011;41619;42.816;23.226;2023-05-02T07:00:17;9.60;;;4.13;;
55314;SDS011;41619;42.816;23.226;2023-05-02T07:02:44;6.53;;;3.28;;
55314;SDS011;41619;42.816;23.226;2023-05-02T07:05:10;5.70;;;3.95;;
55314;SDS011;41619;42.816;23.226;2023-05-02T07:07:37;9.20;;;3.80;;
55314;SDS011;41619;42.816;23.226;2023-05-02T07:10:03;15.65;;;3.80;;
55314;SDS011;41619;42.816;23.226;2023-05-02T07:12:28;7.60;;;3.50;;
55314;SDS011;41619;42.816;23.226;2023-05-02T07:14:54;12.98;;;3.80;;
55314;SDS011;41619;42.816;23.226;2023-05-02T07:17:19;6.63;;;4.30;;
55314;SDS011;41619;42.816;23.226;2023-05-02T07:19:45;5.13;;;3.70;;
55314;SDS011;41619;42.816;23.226;2023-05-02T07:22:10;5.72;;;3.85;;
55314;SDS011;41619;42.816;23.226;2023-05-02T07:24:39;10.27;;;3.60;;
55314;SDS011;41619;42.816;23.226;2023-05-02T07:27:05;6.90;;;3.33;;
55314;SDS011;41619;42.816;23.226;2023-05-02T07:29:32;11.85;;;3.50;;
55314;SDS011;41619;42.816;23.226;2023-05-02T07:31:57;7.20;;;3.53;;
55314;SDS011;41619;42.816;23.226;2023-05-02T07:34:23;7.93;;;3.35;;
55314;SDS011;41619;42.816;23.226;2023-05-02T07:36:48;6.13;;;3.00;;
55314;SDS011;41619;42.816;23.226;2023-05-02T07:39:13;7.82;;;3.30;;
55314;SDS011;41619;42.816;23.226;2023-05-02T07:41:39;8.23;;;3.22;;
55314;SDS011;41619;42.816;23.226;2023-05-02T07:44:04;7.40;;;3.15;;
55314;SDS011;41619;42.816;23.226;2023-05-02T07:46:29;8.30;;;3.28;;
55314;SDS011;41619;42.816;23.226;2023-05-02T07:48:55;9.60;;;3.20;;
55314;SDS011;41619;42.816;23.226;2023-05-02T07:51:20;7.65;;;3.10;;
55314;SDS011;41619;42.816;23.226;2023-05-02T07:53:48;6.30;;;2.75;;
55314;SDS011;41619;42.816;23.226;2023-05-02T07:56:16;8.90;;;3.00;;
55314;SDS011;41619;42.816;23.226;2023-05-02T07:58:42;6.63;;;2.75;;
55314;SDS011;41619;42.816;23.226;2023-05-02T08:01:07;6.55;;;2.90;;
55314;SDS011;41619;42.816;23.226;2023-05-02T08:03:33;8.40;;;3.10;;
55314;SDS011;41619;42.816;23.226;2023-05-02T08:05:58;23.98;;;3.40;;
55314;SDS011;41619;42.816;23.226;2023-05-02T08:08:23;9.68;;;2.88;;
55314;SDS011;41619;42.816;23.226;2023-05-02T08:10:49;6.72;;;2.65;;
55314;SDS011;41619;42.816;23.226;2023-05-02T08:13:15;11.73;;;2.97;;
55314;SDS011;41619;42.816;23.226;2023-05-02T08:15:41;5.50;;;2.75;;
55314;SDS011;41619;42.816;23.226;2023-05-02T08:18:06;3.97;;;2.83;;
55314;SDS011;41619;42.816;23.226;2023-05-02T08:20:32;6.60;;;2.75;;
55314;SDS011;41619;42.816;23.226;2023-05-02T08:22:57;4.13;;;2.63;;
55314;SDS011;41619;42.816;23.226;2023-05-02T08:25:22;4.40;;;2.70;;
55314;SDS011;41619;42.816;23.226;2023-05-02T08:27:48;5.72;;;2.95;;
55314;SDS011;41619;42.816;23.226;2023-05-02T08:30:13;7.28;;;2.60;;
55314;SDS011;41619;42.816;23.226;2023-05-02T08:32:44;3.30;;;2.45;;
55314;SDS011;41619;42.816;23.226;2023-05-02T08:35:11;5.90;;;3.10;;
55314;SDS011;41619;42.816;23.226;2023-05-02T08:37:36;5.43;;;2.80;;
55314;SDS011;41619;42.816;23.226;2023-05-02T08:40:03;6.88;;;3.25;;
55314;SDS011;41619;42.816;23.226;2023-05-02T08:42:29;8.05;;;2.92;;
55314;SDS011;41619;42.816;23.226;2023-05-02T08:44:57;9.00;;;3.22;;
55314;SDS011;41619;42.816;23.226;2023-05-02T08:47:22;6.55;;;2.78;;
55314;SDS011;41619;42.816;23.226;2023-05-02T08:49:49;6.35;;;2.80;;
55314;SDS011;41619;42.816;23.226;2023-05-02T08:52:18;3.85;;;2.33;;
55314;SDS011;41619;42.816;23.226;2023-05-02T08:54:44;10.23;;;2.38;;
55314;SDS011;41619;42.816;23.226;2023-05-02T08:57:10;7.95;;;2.40;;
55314;SDS011;41619;42.816;23.226;2023-05-02T08:59:36;6.32;;;2.83;;
55314;SDS011;41619;42.816;23.226;2023-05-02T09:02:10;4.00;;;2.55;;
55314;SDS011;41619;42.816;23.226;2023-05-02T09:04:42;4.95;;;1.98;;
55314;SDS011;41619;42.816;23.226;2023-05-02T09:07:09;5.35;;;2.50;;
55314;SDS011;41619;42.816;23.226;2023-05-02T09:09:34;6.82;;;2.67;;
55314;SDS011;41619;42.816;23.226;2023-05-02T09:12:01;5.68;;;2.60;;
55314;SDS011;41619;42.816;23.226;2023-05-02T09:14:27;6.95;;;2.50;;
55314;SDS011;41619;42.816;23.226;2023-05-02T09:16:57;4.15;;;2.25;;
55314;SDS011;41619;42.816;23.226;2023-05-02T09:19:25;6.97;;;2.30;;
55314;SDS011;41619;42.816;23.226;2023-05-02T09:21:50;6.20;;;2.10;;
55314;SDS011;41619;42.816;23.226;2023-05-02T09:24:17;2.50;;;2.30;;
55314;SDS011;41619;42.816;23.226;2023-05-02T09:27:01;7.78;;;2.53;;
55314;SDS011;41619;42.816;23.226;2023-05-02T09:29:28;8.02;;;2.40;;
55314;SDS011;41619;42.816;23.226;2023-05-02T09:32:02;10.05;;;3.00;;
55314;SDS011;41619;42.816;23.226;2023-05-02T09:34:29;3.22;;;2.47;;
55314;SDS011;41619;42.816;23.226;2023-05-02T09:36:55;5.70;;;2.20;;
55314;SDS011;41619;42.816;23.226;2023-05-02T09:39:25;8.35;;;2.42;;
55314;SDS011;41619;42.816;23.226;2023-05-02T09:41:55;5.30;;;1.80;;
55314;SDS011;41619;42.816;23.226;2023-05-02T09:44:22;4.47;;;2.78;;
55314;SDS011;41619;42.816;23.226;2023-05-02T09:46:49;8.48;;;2.08;;
55314;SDS011;41619;42.816;23.226;2023-05-02T09:49:17;4.78;;;2.50;;
55314;SDS011;41619;42.816;23.226;2023-05-02T09:51:43;2.67;;;2.15;;
55314;SDS011;41619;42.816;23.226;2023-05-02T09:54:10;8.65;;;2.30;;
55314;SDS011;41619;42.816;23.226;2023-05-02T09:56:55;4.88;;;2.00;;
55314;SDS011;41619;42.816;23.226;2023-05-02T09:59:21;4.93;;;2.40;;
55314;SDS011;41619;42.816;23.226;2023-05-02T10:01:54;8.50;;;2.40;;
55314;SDS011;41619;42.816;23.226;2023-05-02T10:04:21;9.38;;;2.80;;
55314;SDS011;41619;42.816;23.226;2023-05-02T10:06:46;2.95;;;2.15;;
55314;SDS011;41619;42.816;23.226;2023-05-02T10:09:16;3.03;;;2.53;;
55314;SDS011;41619;42.816;23.226;2023-05-02T10:11:46;5.22;;;2.05;;
55314;SDS011;41619;42.816;23.226;2023-05-02T10:14:17;3.20;;;2.10;;
55314;SDS011;41619;42.816;23.226;2023-05-02T10:19:29;3.65;;;2.20;;
55314;SDS011;41619;42.816;23.226;2023-05-02T10:22:02;6.05;;;2.53;;
55314;SDS011;41619;42.816;23.226;2023-05-02T10:24:29;8.98;;;2.97;;
55314;SDS011;41619;42.816;23.226;2023-05-02T10:26:56;4.25;;;2.35;;
55314;SDS011;41619;42.816;23.226;2023-05-02T10:29:22;7.25;;;2.15;;
55314;SDS011;41619;42.816;23.226;2023-05-02T10:31:48;4.32;;;2.72;;
55314;SDS011;41619;42.816;23.226;2023-05-02T10:34:14;2.72;;;2.20;;
55314;SDS011;41619;42.816;23.226;2023-05-02T10:36:42;6.17;;;2.70;;
55314;SDS011;41619;42.816;23.226;2023-05-02T10:39:07;6.50;;;2.42;;
55314;SDS011;41619;42.816;23.226;2023-05-02T10:41:33;6.93;;;2.47;;
55314;SDS011;41619;42.816;23.226;2023-05-02T10:43:59;9.50;;;2.10;;
55314;SDS011;41619;42.816;23.226;2023-05-02T10:46:32;5.80;;;2.30;;
55314;SDS011;41619;42.816;23.226;2023-05-02T10:49:00;2.10;;;1.83;;
55314;SDS011;41619;42.816;23.226;2023-05-02T10:51:35;5.18;;;2.55;;
55314;SDS011;41619;42.816;23.226;2023-05-02T10:54:26;6.07;;;2.20;;
55314;SDS011;41619;42.816;23.226;2023-05-02T10:57:01;2.20;;;1.92;;
55314;SDS011;41619;42.816;23.226;2023-05-02T11:02:03;4.57;;;2.22;;
55314;SDS011;41619;42.816;23.226;2023-05-02T11:07:34;4.03;;;2.17;;
55314;SDS011;41619;42.816;23.226;2023-05-02T11:12:42;3.28;;;1.90;;
55314;SDS011;41619;42.816;23.226;2023-05-02T11:15:11;3.17;;;2.17;;
55314;SDS011;41619;42.816;23.226;2023-05-02T11:20:26;5.90;;;2.40;;
55314;SDS011;41619;42.816;23.226;2023-05-02T11:22:52;8.82;;;2.33;;
55314;SDS011;41619;42.816;23.226;2023-05-02T11:25:28;7.15;;;1.92;;
55314;SDS011;41619;42.816;23.226;2023-05-02T11:27:59;4.63;;;2.08;;
55314;SDS011;41619;42.816;23.226;2023-05-02T11:30:37;3.85;;;2.13;;
55314;SDS011;41619;42.816;23.226;2023-05-02T11:35:30;6.43;;;2.20;;
55314;SDS011;41619;42.816;23.226;2023-05-02T11:37:56;8.25;;;2.45;;
55314;SDS011;41619;42.816;23.226;2023-05-02T11:40:27;4.78;;;2.00;;
55314;SDS011;41619;42.816;23.226;2023-05-02T11:42:53;8.43;;;2.22;;
55314;SDS011;41619;42.816;23.226;2023-05-02T11:45:19;2.90;;;2.00;;
55314;SDS011;41619;42.816;23.226;2023-05-02T11:47:45;2.83;;;1.98;;
55314;SDS011;41619;42.816;23.226;2023-05-02T11:50:16;5.70;;;2.28;;
55314;SDS011;41619;42.816;23.226;2023-05-02T11:52:42;2.40;;;1.83;;
55314;SDS011;41619;42.816;23.226;2023-05-02T11:55:10;7.60;;;2.50;;
55314;SDS011;41619;42.816;23.226;2023-05-02T11:57:38;8.50;;;2.30;;
55314;SDS011;41619;42.816;23.226;2023-05-02T12:00:04;2.80;;;1.95;;
55314;SDS011;41619;42.816;23.226;2023-05-02T12:02:34;6.13;;;1.98;;
55314;SDS011;41619;42.816;23.226;2023-05-02T12:05:02;4.00;;;1.85;;
55314;SDS011;41619;42.816;23.226;2023-05-02T12:10:03;4.57;;;2.22;;
55314;SDS011;41619;42.816;23.226;2023-05-02T12:12:29;3.75;;;2.10;;
55314;SDS011;41619;42.816;23.226;2023-05-02T12:14:55;4.63;;;1.83;;
55314;SDS011;41619;42.816;23.226;2023-05-02T12:17:21;3.38;;;1.90;;
55314;SDS011;41619;42.816;23.226;2023-05-02T12:19:47;6.07;;;2.22;;
55314;SDS011;41619;42.816;23.226;2023-05-02T12:22:13;3.58;;;2.20;;
55314;SDS011;41619;42.816;23.226;2023-05-02T12:24:40;8.52;;;1.98;;
55314;SDS011;41619;42.816;23.226;2023-05-02T12:27:12;5.82;;;1.83;;
55314;SDS011;41619;42.816;23.226;2023-05-02T12:29:39;3.03;;;1.80;;
55314;SDS011;41619;42.816;23.226;2023-05-02T12:32:05;6.05;;;2.00;;
55314;SDS011;41619;42.816;23.226;2023-05-02T12:34:31;3.47;;;1.90;;
55314;SDS011;41619;42.816;23.226;2023-05-02T12:36:57;6.50;;;3.50;;
55314;SDS011;41619;42.816;23.226;2023-05-02T12:39:33;9.23;;;1.95;;
55314;SDS011;41619;42.816;23.226;2023-05-02T12:44:35;5.60;;;2.33;;
55314;SDS011;41619;42.816;23.226;2023-05-02T12:47:02;4.68;;;2.05;;
55314;SDS011;41619;42.816;23.226;2023-05-02T12:49:27;6.00;;;2.00;;
55314;SDS011;41619;42.816;23.226;2023-05-02T12:51:53;3.97;;;2.00;;
55314;SDS011;41619;42.816;23.226;2023-05-02T12:56:47;4.95;;;1.67;;
55314;SDS011;41619;42.816;23.226;2023-05-02T12:59:28;6.53;;;2.33;;
55314;SDS011;41619;42.816;23.226;2023-05-02T13:04:21;7.20;;;2.15;;
55314;SDS011;41619;42.816;23.226;2023-05-02T13:06:46;2.42;;;1.73;;
55314;SDS011;41619;42.816;23.226;2023-05-02T13:09:11;7.50;;;1.73;;
55314;SDS011;41619;42.816;23.226;2023-05-02T13:11:37;2.80;;;1.65;;
55314;SDS011;41619;42.816;23.226;2023-05-02T13:14:03;5.43;;;1.65;;
55314;SDS011;41619;42.816;23.226;2023-05-02T13:16:29;6.13;;;2.22;;
55314;SDS011;41619;42.816;23.226;2023-05-02T13:18:55;4.93;;;2.00;;
55314;SDS011;41619;42.816;23.226;2023-05-02T13:21:20;5.20;;;1.83;;
55314;SDS011;41619;42.816;23.226;2023-05-02T13:23:46;6.90;;;1.98;;
55314;SDS011;41619;42.816;23.226;2023-05-02T13:26:14;3.83;;;2.10;;
55314;SDS011;41619;42.816;23.226;2023-05-02T13:28:40;3.72;;;1.85;;
55314;SDS011;41619;42.816;23.226;2023-05-02T13:31:05;5.70;;;1.90;;
55314;SDS011;41619;42.816;23.226;2023-05-02T13:33:31;8.75;;;2.20;;
55314;SDS011;41619;42.816;23.226;2023-05-02T13:35:56;7.43;;;2.25;;
55314;SDS011;41619;42.816;23.226;2023-05-02T13:38:22;4.10;;;2.20;;
55314;SDS011;41619;42.816;23.226;2023-05-02T13:40:47;7.25;;;2.10;;
55314;SDS011;41619;42.816;23.226;2023-05-02T13:43:14;2.90;;;1.73;;
55314;SDS011;41619;42.816;23.226;2023-05-02T13:45:39;3.47;;;2.00;;
55314;SDS011;41619;42.816;23.226;2023-05-02T13:48:05;10.18;;;2.00;;
55314;SDS011;41619;42.816;23.226;2023-05-02T13:50:30;3.05;;;2.10;;
55314;SDS011;41619;42.816;23.226;2023-05-02T13:52:56;5.72;;;2.05;;
55314;SDS011;41619;42.816;23.226;2023-05-02T13:55:21;4.30;;;2.10;;
55314;SDS011;41619;42.816;23.226;2023-05-02T13:57:46;6.38;;;2.03;;
55314;SDS011;41619;42.816;23.226;2023-05-02T14:00:13;9.98;;;1.73;;
55314;SDS011;41619;42.816;23.226;2023-05-02T14:02:40;5.45;;;1.90;;
55314;SDS011;41619;42.816;23.226;2023-05-02T14:05:05;5.70;;;2.20;;
55314;SDS011;41619;42.816;23.226;2023-05-02T14:07:31;5.43;;;1.85;;
55314;SDS011;41619;42.816;23.226;2023-05-02T14:09:56;7.65;;;2.13;;
55314;SDS011;41619;42.816;23.226;2023-05-02T14:12:22;5.15;;;1.70;;
55314;SDS011;41619;42.816;23.226;2023-05-02T14:14:47;6.50;;;1.85;;
55314;SDS011;41619;42.816;23.226;2023-05-02T14:17:13;6.00;;;1.98;;
55314;SDS011;41619;42.816;23.226;2023-05-02T14:19:38;4.00;;;1.65;;
55314;SDS011;41619;42.816;23.226;2023-05-02T14:22:03;5.25;;;1.70;;
55314;SDS011;41619;42.816;23.226;2023-05-02T14:24:29;6.88;;;1.80;;
55314;SDS011;41619;42.816;23.226;2023-05-02T14:26:54;6.85;;;1.85;;
55314;SDS011;41619;42.816;23.226;2023-05-02T14:29:20;8.00;;;1.98;;
55314;SDS011;41619;42.816;23.226;2023-05-02T14:31:45;7.70;;;2.20;;
55314;SDS011;41619;42.816;23.226;2023-05-02T14:34:11;4.35;;;1.50;;
55314;SDS011;41619;42.816;23.226;2023-05-02T14:36:37;12.40;;;1.95;;
55314;SDS011;41619;42.816;23.226;2023-05-02T14:39:02;2.33;;;1.60;;
55314;SDS011;41619;42.816;23.226;2023-05-02T14:41:27;3.47;;;1.52;;
55314;SDS011;41619;42.816;23.226;2023-05-02T14:43:53;6.93;;;1.73;;
55314;SDS011;41619;42.816;23.226;2023-05-02T14:46:18;3.60;;;1.75;;
55314;SDS011;41619;42.816;23.226;2023-05-02T14:48:44;6.40;;;1.77;;
55314;SDS011;41619;42.816;23.226;2023-05-02T14:51:09;6.07;;;1.60;;
55314;SDS011;41619;42.816;23.226;2023-05-02T14:53:35;5.60;;;1.90;;
55314;SDS011;41619;42.816;23.226;2023-05-02T14:56:00;3.53;;;1.55;;
55314;SDS011;41619;42.816;23.226;2023-05-02T14:58:25;6.72;;;1.67;;
55314;SDS011;41619;42.816;23.226;2023-05-02T15:00:51;4.85;;;1.50;;
55314;SDS011;41619;42.816;23.226;2023-05-02T15:03:16;7.07;;;1.88;;
55314;SDS011;41619;42.816;23.226;2023-05-02T15:05:42;3.50;;;1.60;;
55314;SDS011;41619;42.816;23.226;2023-05-02T15:08:07;6.15;;;1.70;;
55314;SDS011;41619;42.816;23.226;2023-05-02T15:10:38;5.70;;;2.67;;
55314;SDS011;41619;42.816;23.226;2023-05-02T15:13:04;5.82;;;2.15;;
55314;SDS011;41619;42.816;23.226;2023-05-02T15:15:30;6.43;;;1.80;;
55314;SDS011;41619;42.816;23.226;2023-05-02T15:17:55;2.90;;;1.63;;